createdAt,value
2016-05-25T18:24:16.943Z,114
2016-05-25T18:24:31.208Z,122
2016-05-25T18:24:49.008Z,114
2016-05-25T18:25:06.399Z,108
2016-05-25T18:25:20.211Z,119
2016-05-25T18:25:41.289Z,123
2016-05-25T18:25:55.152Z,119
2016-05-25T18:26:09.277Z,123
2016-05-25T18:26:23.230Z,123
2016-05-25T18:26:37.230Z,128
2016-05-25T18:26:51.295Z,117
2016-05-25T18:27:04.983Z,120
2016-05-25T18:27:18.983Z,129
2016-05-25T18:27:32.842Z,119
2016-05-25T18:27:50.861Z,127
2016-05-25T18:28:05.392Z,118
2016-05-25T18:28:20.455Z,117
2016-05-25T18:28:34.080Z,119
2016-05-25T18:28:48.269Z,114
2016-05-25T18:29:01.753Z,127
2016-05-25T18:29:15.847Z,133
2016-05-25T18:29:34.066Z,137
2016-05-25T18:29:48.022Z,131
2016-05-25T18:30:02.678Z,126
2016-05-25T18:30:16.913Z,133
2016-05-25T18:30:30.569Z,108
2016-05-25T18:30:44.006Z,127
2016-05-25T18:30:59.759Z,131
2016-05-25T18:31:19.697Z,170
2016-05-25T18:31:33.338Z,138
2016-05-25T18:31:48.966Z,146
2016-05-25T18:32:02.966Z,142
2016-05-25T18:32:19.387Z,146
2016-05-25T18:32:34.981Z,131
2016-05-25T18:32:57.796Z,146
2016-05-25T18:33:12.749Z,145
2016-05-25T18:33:26.749Z,135
2016-05-25T18:33:40.546Z,139
2016-05-25T18:33:55.877Z,137
2016-05-25T18:34:11.471Z,144
2016-05-25T18:34:25.767Z,135
2016-05-25T18:34:39.502Z,140
2016-05-25T18:34:57.332Z,134
2016-05-25T18:35:10.894Z,128
2016-05-25T18:35:24.551Z,148
2016-05-25T18:35:38.738Z,140
2016-05-25T18:35:53.507Z,131
2016-05-25T18:36:08.522Z,146
2016-05-25T18:36:22.085Z,141
2016-05-25T18:36:35.804Z,142
2016-05-25T18:36:50.338Z,132
2016-05-25T18:37:05.963Z,156
2016-05-25T18:37:19.682Z,125
2016-05-25T18:37:35.088Z,165
2016-05-25T18:37:52.185Z,168
2016-05-25T18:38:05.919Z,145
2016-05-25T18:38:20.013Z,145
2016-05-25T18:38:33.544Z,158
2016-05-25T18:38:47.249Z,162
2016-05-25T18:39:01.515Z,145
2016-05-25T18:39:15.671Z,150
2016-05-25T18:39:29.999Z,146
2016-05-25T18:39:43.609Z,146
2016-05-25T18:39:57.283Z,148
2016-05-25T18:40:12.690Z,145
2016-05-25T18:40:26.846Z,173
2016-05-25T18:40:41.080Z,153
2016-05-25T18:40:55.255Z,158
2016-05-25T18:41:09.036Z,163
2016-05-25T18:41:22.802Z,149
2016-05-25T18:41:37.615Z,159
2016-05-25T18:41:51.163Z,165
2016-05-25T18:42:05.367Z,158
2016-05-25T21:34:27.189Z,207
2016-05-25T21:34:41.423Z,220
2016-05-25T21:34:54.833Z,212
2016-05-25T21:35:08.911Z,209
2016-05-25T21:35:23.473Z,204
2016-05-25T21:35:37.036Z,208
2016-05-25T21:35:50.926Z,209
2016-05-25T21:36:04.897Z,209
2016-05-25T21:36:19.975Z,208
2016-05-25T21:36:33.616Z,215
2016-05-25T21:36:47.897Z,210
2016-05-25T21:37:02.196Z,218
2016-05-25T21:37:15.680Z,208
2016-05-25T21:37:28.946Z,212
2016-05-25T21:37:43.118Z,207
2016-05-25T21:37:56.433Z,216
2016-05-25T21:38:12.996Z,216
2016-05-25T21:38:26.496Z,210
2016-05-25T21:38:40.121Z,209
2016-05-25T21:38:53.874Z,213
2016-05-25T21:39:07.499Z,212
2016-05-25T21:39:20.983Z,210
2016-05-25T21:39:35.218Z,197
2016-05-25T21:39:48.733Z,200
2016-05-25T21:40:02.455Z,234
2016-05-25T21:40:16.408Z,216
2016-05-25T21:40:29.955Z,204
2016-05-25T21:40:50.721Z,198
2016-05-25T21:41:04.160Z,226
2016-05-25T21:41:17.566Z,198
2016-05-25T21:41:31.723Z,210
2016-05-25T21:41:46.051Z,223
2016-05-25T21:41:59.538Z,217
2016-05-25T21:42:12.913Z,212
2016-05-25T21:42:26.413Z,196
2016-05-25T21:42:39.944Z,184
2016-05-25T21:42:53.713Z,186
2016-05-25T21:43:07.072Z,194
2016-05-25T21:43:20.510Z,220
2016-05-25T21:43:35.057Z,206
2016-05-25T21:43:48.854Z,213
